Phoenix Island — 3FYF5 — position and weather

sailwx.info

Track history (hours):
 
Tides and Currents Weather Stations Pressure Air Temp Water Temp Dewpoint Dewpoint Depression Visibility Wind Speed Wind Dir Waves Ship Positions

Phoenix Island

Last reported at 2017-Nov-20 00:30 UTC. Time now 2017-Nov-21 15:49 UTC.
Position N 09°31' W 013°43'.

Length 162.9 m; beam 27 m.

Type: Cargo ship. MMSI: 356061000.

Date/timePositionNaut miles runAvg speedWind from/ knotsBaromVisibWave heightAir tempDewpointWater temp
2017-Nov-20 00:30N 09°31' W 013°43'0 0.0
2017-Nov-20 00:00N 09°31' W 013°43'0 0.0
2017-Nov-19 23:30N 09°31' W 013°43'0 0.0
2017-Nov-19 23:00N 09°31' W 013°43'0 0.0
2017-Nov-19 22:30N 09°31' W 013°43'0 0.0
2017-Nov-19 22:00N 09°31' W 013°43'0 0.0
2017-Nov-19 21:30N 09°31' W 013°43'0 0.0
2017-Nov-19 21:00N 09°31' W 013°43'0 0.0
2017-Nov-19 20:30N 09°31' W 013°43'0 0.0
2017-Nov-19 20:00N 09°31' W 013°43'0 0.0
2017-Nov-19 19:30N 09°31' W 013°43'0 0.0
2017-Nov-19 19:00N 09°31' W 013°43'0 0.0
2017-Nov-19 18:30N 09°31' W 013°43'0 0.0
2017-Nov-19 18:00N 09°31' W 013°43'0 0.0
2017-Nov-19 17:30N 09°31' W 013°43'0 0.0
2017-Nov-19 16:57N 09°31' W 013°43'0 0.0
2017-Nov-19 16:30N 09°31' W 013°43'0 0.0
2017-Nov-19 16:00N 09°31' W 013°43'0 0.0
2017-Nov-19 15:30N 09°31' W 013°43'0 0.0
2017-Nov-19 15:00N 09°31' W 013°43'0 0.0
2017-Nov-19 14:30N 09°31' W 013°43'0 0.0
2017-Nov-19 14:00N 09°31' W 013°43'0 0.0
2017-Nov-19 13:30N 09°31' W 013°43'0 0.0
2017-Nov-19 13:00N 09°31' W 013°43'0 0.0
2017-Nov-19 12:30N 09°31' W 013°43'0 0.0
2017-Nov-19 12:00N 09°31' W 013°43'0 0.7
2017-Nov-19 11:31N 09°31' W 013°43'2 4.5
2017-Nov-19 11:00N 09°29' W 013°44'3 5.9
2017-Nov-19 10:30N 09°26' W 013°44'4 8.7
2017-Nov-19 10:00N 09°22' W 013°45'0 0.2
2017-Nov-19 09:30N 09°22' W 013°45'0 0.1
2017-Nov-19 09:00N 09°22' W 013°45'0 0.3
2017-Nov-19 08:31N 09°22' W 013°45'0 0.8
2017-Nov-19 08:01N 09°21' W 013°46'1 2.4
2017-Nov-19 07:31N 09°21' W 013°47'3 6.4
2017-Nov-19 07:01N 09°19' W 013°49'3 6.7
2017-Nov-19 06:31N 09°18' W 013°52'4 8.4
2017-Nov-19 06:01N 09°15' W 013°56'1 1.5
2017-Nov-19 05:31N 09°15' W 013°56'0 0.9
2017-Nov-19 05:00N 09°14' W 013°57'0 0.8
2017-Nov-19 04:30N 09°14' W 013°57'0 0.6
2017-Nov-19 04:00N 09°14' W 013°57'0 0.5
2017-Nov-19 03:30N 09°14' W 013°57'0 0.3
2017-Nov-19 03:00N 09°14' W 013°57'0 0.3
2017-Nov-19 02:28N 09°14' W 013°58'0 0.3
2017-Nov-19 01:56N 09°14' W 013°58'0 0.4
2017-Nov-19 01:27N 09°14' W 013°57'0 0.6
2017-Nov-19 01:01N 09°15' W 013°57'0 0.8
2017-Nov-19 00:31N 09°15' W 013°57'0 0.8
2017-Nov-19 00:01N 09°15' W 013°57'0 0.9
2017-Nov-18 23:31N 09°16' W 013°57'0 1.0
2017-Nov-18 23:01N 09°16' W 013°56'0 0.8
2017-Nov-18 22:30N 09°16' W 013°56'0 0.7
2017-Nov-18 22:00N 09°16' W 013°56'0 0.6
2017-Nov-18 21:30N 09°17' W 013°55'0 0.5
2017-Nov-18 21:00N 09°17' W 013°55'0 0.3
2017-Nov-18 20:30N 09°17' W 013°55'0 0.1
2017-Nov-18 20:00N 09°17' W 013°55'0 0.2
2017-Nov-18 19:30N 09°17' W 013°55'0 0.5
2017-Nov-18 19:00N 09°17' W 013°55'0 0.5
2017-Nov-18 18:30N 09°16' W 013°56'0 0.8
2017-Nov-18 18:00N 09°16' W 013°56'0 0.8
2017-Nov-18 17:30N 09°16' W 013°56'0 0.8
2017-Nov-18 17:00N 09°16' W 013°57'0 0.8
2017-Nov-18 16:31N 09°16' W 013°57'0 0.8
2017-Nov-18 15:58N 09°16' W 013°58'0 0.6
2017-Nov-18 15:31N 09°16' W 013°58'0 0.6
2017-Nov-18 15:00N 09°16' W 013°58'0 0.3
2017-Nov-18 14:25N 09°16' W 013°58'0 0.4
2017-Nov-18 14:00N 09°16' W 013°58'0 0.6
2017-Nov-18 13:28N 09°16' W 013°58'0 0.7
2017-Nov-18 13:00N 09°17' W 013°58'1 1.0
2017-Nov-18 12:28N 09°17' W 013°58'0 1.1
2017-Nov-18 12:01N 09°18' W 013°58'1 1.2
2017-Nov-18 11:31N 09°18' W 013°58'1 1.2
2017-Nov-18 11:01N 09°19' W 013°58'1 1.2
2017-Nov-18 10:31N 09°19' W 013°58'1 1.1
2017-Nov-18 09:55N 09°20' W 013°57'0 1.0
2017-Nov-18 09:30N 09°20' W 013°57'0 0.8
2017-Nov-18 09:01N 09°21' W 013°57'0 0.7
2017-Nov-18 08:31N 09°21' W 013°57'0 0.6
2017-Nov-18 07:58N 09°21' W 013°58'0 0.6
2017-Nov-18 07:30N 09°21' W 013°58'0 0.6
2017-Nov-18 07:00N 09°21' W 013°58'0 0.8
2017-Nov-18 06:30N 09°21' W 013°59'0 0.9
2017-Nov-18 06:00N 09°21' W 013°59'1 1.0
2017-Nov-18 05:28N 09°21' W 013°59'1 1.1
2017-Nov-18 05:00N 09°20' W 013°60'1 1.2
2017-Nov-18 04:30N 09°20' W 014°00'1 1.1
2017-Nov-18 04:01N 09°20' W 014°01'0 1.0
2017-Nov-18 03:30N 09°19' W 014°01'0 0.8
2017-Nov-18 03:00N 09°19' W 014°01'0 0.6
2017-Nov-18 02:30N 09°19' W 014°02'0 0.4
2017-Nov-18 02:00N 09°19' W 014°02'0 0.4
2017-Nov-18 01:30N 09°19' W 014°02'0 0.3
2017-Nov-18 01:00N 09°19' W 014°02'0 0.2
2017-Nov-18 00:30N 09°19' W 014°02'0 0.4
2017-Nov-18 00:00N 09°19' W 014°02'0 0.5
2017-Nov-17 23:31N 09°19' W 014°02'0 0.6
2017-Nov-17 23:00N 09°19' W 014°02'0 0.6
2017-Nov-17 22:31N 09°20' W 014°02'0 0.7
2017-Nov-17 22:01N 09°20' W 014°03'0 0.5
2017-Nov-17 21:30N 09°20' W 014°03'1 0.7
2017-Nov-17 20:20N 09°21' W 014°02'3 9.0
2017-Nov-17 19:59N 09°22' W 013°59'5 9.5
2017-Nov-17 19:30N 09°24' W 013°55'2 4.6
2017-Nov-17 19:00N 09°25' W 013°53'0 0.8
2017-Nov-17 18:31N 09°24' W 013°53'0 0.9
2017-Nov-17 18:00N 09°24' W 013°53'1 1.1
2017-Nov-17 17:31N 09°24' W 013°54'1 1.0
2017-Nov-17 17:01N 09°23' W 013°54'1 1.0
2017-Nov-17 16:30N 09°23' W 013°55'1 1.1
2017-Nov-17 16:01N 09°23' W 013°55'1 1.1
2017-Nov-17 15:31N 09°23' W 013°56'1 1.0
2017-Nov-17 15:00N 09°22' W 013°56'0 1.0
2017-Nov-17 14:31N 09°22' W 013°56'0 0.7
2017-Nov-17 14:00N 09°22' W 013°57'0 0.5
2017-Nov-17 13:30N 09°22' W 013°57'0 0.4
2017-Nov-17 13:00N 09°22' W 013°57'0 0.4
2017-Nov-17 12:31N 09°22' W 013°57'0 0.3
2017-Nov-17 12:01N 09°22' W 013°58'0 0.4
2017-Nov-17 11:31N 09°23' W 013°58'0 0.3
2017-Nov-17 11:00N 09°23' W 013°58'0 0.3
2017-Nov-17 09:34N 09°23' W 013°57'0 0.2
2017-Nov-17 09:28N 09°23' W 013°57'0 0.3
2017-Nov-17 08:53N 09°22' W 013°57'0 0.6
2017-Nov-17 08:03N 09°22' W 013°57'0 0.8
2017-Nov-17 08:00N 09°22' W 013°57'0 0.8
2017-Nov-17 07:31N 09°21' W 013°57'1 1.1
2017-Nov-17 07:01N 09°21' W 013°57'1 1.4
2017-Nov-17 06:31N 09°20' W 013°57'1 1.4
2017-Nov-17 06:00N 09°20' W 013°58'1 1.6
2017-Nov-17 05:12N 09°18' W 013°58'1 1.7
2017-Nov-17 04:31N 09°17' W 013°58'0 1.8
2017-Nov-17 04:30N 09°17' W 013°58'1 1.5
2017-Nov-17 04:00N 09°16' W 013°58'1 1.4
2017-Nov-17 03:31N 09°16' W 013°59'1 1.1
2017-Nov-17 03:01N 09°15' W 013°59'1 0.8
2017-Nov-17 02:22N 09°15' W 013°59'0 0.6
2017-Nov-17 01:58N 09°15' W 013°59'0 0.4
2017-Nov-17 01:30N 09°15' W 013°59'0 0.4
2017-Nov-17 01:00N 09°14' W 013°59'0 0.1
2017-Nov-17 00:29N 09°14' W 013°59'0 0.4
2017-Nov-17 00:01N 09°14' W 013°59'0 0.5
2017-Nov-16 23:27N 09°14' W 013°59'0 0.6
2017-Nov-16 22:59N 09°15' W 013°59'0 0.6
2017-Nov-16 22:30N 09°15' W 013°58'0 0.6
2017-Nov-16 22:00N 09°15' W 013°58'0 0.6
2017-Nov-16 21:28N 09°15' W 013°58'0 0.5
2017-Nov-16 21:01N 09°15' W 013°58'0 0.4
2017-Nov-16 20:30N 09°15' W 013°57'0 0.3
2017-Nov-16 19:59N 09°15' W 013°57'0 0.3
2017-Nov-16 19:17N 09°15' W 013°57'0 0.4
2017-Nov-16 18:40N 09°14' W 013°57'0 0.6
2017-Nov-16 18:30N 09°14' W 013°57'0 0.7
2017-Nov-16 18:01N 09°14' W 013°57'0 0.9
2017-Nov-16 17:30N 09°14' W 013°58'0 0.9
2017-Nov-16 17:01N 09°13' W 013°58'0 1.0
2017-Nov-16 16:31N 09°13' W 013°58'0 0.9
2017-Nov-16 16:01N 09°13' W 013°59'1 1.1
2017-Nov-16 15:30N 09°13' W 013°59'1 1.2
2017-Nov-16 15:00N 09°12' W 013°60'1 1.1
2017-Nov-16 14:31N 09°12' W 014°00'0 1.0
2017-Nov-16 14:00N 09°12' W 014°01'0 0.8
2017-Nov-16 13:30N 09°12' W 014°01'0 0.7
2017-Nov-16 13:00N 09°12' W 014°01'0 0.7
2017-Nov-16 12:31N 09°12' W 014°02'0 0.7
2017-Nov-16 12:00N 09°13' W 014°02'0 0.8
2017-Nov-16 11:30N 09°13' W 014°02'0 0.8
2017-Nov-16 11:00N 09°13' W 014°02'0 0.8
2017-Nov-16 10:31N 09°14' W 014°02'0 0.9
2017-Nov-16 10:00N 09°14' W 014°02'0 0.9
2017-Nov-16 09:31N 09°15' W 014°01'0 0.9
2017-Nov-16 09:00N 09°15' W 014°01'0 0.8
2017-Nov-16 08:31N 09°16' W 014°01'0 0.8
2017-Nov-16 08:00N 09°16' W 014°01'0 0.6
2017-Nov-16 07:31N 09°16' W 014°01'0 0.4
2017-Nov-16 07:00N 09°17' W 014°01'0 0.3
2017-Nov-16 06:30N 09°17' W 014°01'0 0.3
2017-Nov-16 06:01N 09°17' W 014°01'0 0.6
2017-Nov-16 05:30N 09°17' W 014°02'0 0.8
2017-Nov-16 05:01N 09°17' W 014°02'1 1.1
2017-Nov-16 04:31N 09°16' W 014°03'1 1.3
2017-Nov-16 04:01N 09°16' W 014°03'1 1.4
2017-Nov-16 03:30N 09°16' W 014°04'1 1.5
2017-Nov-16 03:00N 09°15' W 014°04'8 7.1
2017-Nov-16 01:50N 09°18' W 013°56'3 9.4
2017-Nov-16 01:29N 09°19' W 013°53'4 9.3
2017-Nov-16 01:00N 09°20' W 013°49'4 8.5
2017-Nov-16 00:30N 09°22' W 013°45'5 9.8
2017-Nov-16 00:01N 09°21' W 013°50'510.9
2017-Nov-15 23:30N 09°19' W 013°55'612.1
2017-Nov-15 23:01N 09°18' W 014°01'612.5
2017-Nov-15 22:31N 09°19' W 014°07'712.4
2017-Nov-15 21:59N 09°20' W 014°14'1712.5
2017-Nov-15 20:35N 09°22' W 014°31'412.5
2017-Nov-15 20:17N 09°22' W 014°35'412.6
2017-Nov-15 19:58N 09°23' W 014°39'  
Track history (hours):
 
Tides and Currents Weather Stations Pressure Air Temp Water Temp Dewpoint Dewpoint Depression Visibility Wind Speed Wind Dir Waves Ship Positions

Phoenix Island

Last reported at 2017-Nov-20 00:30 UTC. Time now 2017-Nov-21 15:49 UTC.
Position N 09°31' W 013°43'.

Length 162.9 m; beam 27 m.

Type: Cargo ship. MMSI: 356061000.

Date/timePositionNaut miles runAvg speedWind from/ knotsBaromVisibWave heightAir tempDewpointWater temp
2017-Nov-20 00:30N 09°31' W 013°43'0 0.0
2017-Nov-20 00:00N 09°31' W 013°43'0 0.0
2017-Nov-19 23:30N 09°31' W 013°43'0 0.0
2017-Nov-19 23:00N 09°31' W 013°43'0 0.0
2017-Nov-19 22:30N 09°31' W 013°43'0 0.0
2017-Nov-19 22:00N 09°31' W 013°43'0 0.0
2017-Nov-19 21:30N 09°31' W 013°43'0 0.0
2017-Nov-19 21:00N 09°31' W 013°43'0 0.0
2017-Nov-19 20:30N 09°31' W 013°43'0 0.0
2017-Nov-19 20:00N 09°31' W 013°43'0 0.0
2017-Nov-19 19:30N 09°31' W 013°43'0 0.0
2017-Nov-19 19:00N 09°31' W 013°43'0 0.0
2017-Nov-19 18:30N 09°31' W 013°43'0 0.0
2017-Nov-19 18:00N 09°31' W 013°43'0 0.0
2017-Nov-19 17:30N 09°31' W 013°43'0 0.0
2017-Nov-19 16:57N 09°31' W 013°43'0 0.0
2017-Nov-19 16:30N 09°31' W 013°43'0 0.0
2017-Nov-19 16:00N 09°31' W 013°43'0 0.0
2017-Nov-19 15:30N 09°31' W 013°43'0 0.0
2017-Nov-19 15:00N 09°31' W 013°43'0 0.0
2017-Nov-19 14:30N 09°31' W 013°43'0 0.0
2017-Nov-19 14:00N 09°31' W 013°43'0 0.0
2017-Nov-19 13:30N 09°31' W 013°43'0 0.0
2017-Nov-19 13:00N 09°31' W 013°43'0 0.0
2017-Nov-19 12:30N 09°31' W 013°43'0 0.0
2017-Nov-19 12:00N 09°31' W 013°43'0 0.7
2017-Nov-19 11:31N 09°31' W 013°43'2 4.5
2017-Nov-19 11:00N 09°29' W 013°44'3 5.9
2017-Nov-19 10:30N 09°26' W 013°44'4 8.7
2017-Nov-19 10:00N 09°22' W 013°45'0 0.2
2017-Nov-19 09:30N 09°22' W 013°45'0 0.1
2017-Nov-19 09:00N 09°22' W 013°45'0 0.3
2017-Nov-19 08:31N 09°22' W 013°45'0 0.8
2017-Nov-19 08:01N 09°21' W 013°46'1 2.4
2017-Nov-19 07:31N 09°21' W 013°47'3 6.4
2017-Nov-19 07:01N 09°19' W 013°49'3 6.7
2017-Nov-19 06:31N 09°18' W 013°52'4 8.4
2017-Nov-19 06:01N 09°15' W 013°56'1 1.5
2017-Nov-19 05:31N 09°15' W 013°56'0 0.9
2017-Nov-19 05:00N 09°14' W 013°57'0 0.8
2017-Nov-19 04:30N 09°14' W 013°57'0 0.6
2017-Nov-19 04:00N 09°14' W 013°57'0 0.5
2017-Nov-19 03:30N 09°14' W 013°57'0 0.3
2017-Nov-19 03:00N 09°14' W 013°57'0 0.3
2017-Nov-19 02:28N 09°14' W 013°58'0 0.3
2017-Nov-19 01:56N 09°14' W 013°58'0 0.4
2017-Nov-19 01:27N 09°14' W 013°57'0 0.6
2017-Nov-19 01:01N 09°15' W 013°57'0 0.8
2017-Nov-19 00:31N 09°15' W 013°57'0 0.8
2017-Nov-19 00:01N 09°15' W 013°57'0 0.9
2017-Nov-18 23:31N 09°16' W 013°57'0 1.0
2017-Nov-18 23:01N 09°16' W 013°56'0 0.8
2017-Nov-18 22:30N 09°16' W 013°56'0 0.7
2017-Nov-18 22:00N 09°16' W 013°56'0 0.6
2017-Nov-18 21:30N 09°17' W 013°55'0 0.5
2017-Nov-18 21:00N 09°17' W 013°55'0 0.3
2017-Nov-18 20:30N 09°17' W 013°55'0 0.1
2017-Nov-18 20:00N 09°17' W 013°55'0 0.2
2017-Nov-18 19:30N 09°17' W 013°55'0 0.5
2017-Nov-18 19:00N 09°17' W 013°55'0 0.5
2017-Nov-18 18:30N 09°16' W 013°56'0 0.8
2017-Nov-18 18:00N 09°16' W 013°56'0 0.8
2017-Nov-18 17:30N 09°16' W 013°56'0 0.8
2017-Nov-18 17:00N 09°16' W 013°57'0 0.8
2017-Nov-18 16:31N 09°16' W 013°57'0 0.8
2017-Nov-18 15:58N 09°16' W 013°58'0 0.6
2017-Nov-18 15:31N 09°16' W 013°58'0 0.6
2017-Nov-18 15:00N 09°16' W 013°58'0 0.3
2017-Nov-18 14:25N 09°16' W 013°58'0 0.4
2017-Nov-18 14:00N 09°16' W 013°58'0 0.6
2017-Nov-18 13:28N 09°16' W 013°58'0 0.7
2017-Nov-18 13:00N 09°17' W 013°58'1 1.0
2017-Nov-18 12:28N 09°17' W 013°58'0 1.1
2017-Nov-18 12:01N 09°18' W 013°58'1 1.2
2017-Nov-18 11:31N 09°18' W 013°58'1 1.2
2017-Nov-18 11:01N 09°19' W 013°58'1 1.2
2017-Nov-18 10:31N 09°19' W 013°58'1 1.1
2017-Nov-18 09:55N 09°20' W 013°57'0 1.0
2017-Nov-18 09:30N 09°20' W 013°57'0 0.8
2017-Nov-18 09:01N 09°21' W 013°57'0 0.7
2017-Nov-18 08:31N 09°21' W 013°57'0 0.6
2017-Nov-18 07:58N 09°21' W 013°58'0 0.6
2017-Nov-18 07:30N 09°21' W 013°58'0 0.6
2017-Nov-18 07:00N 09°21' W 013°58'0 0.8
2017-Nov-18 06:30N 09°21' W 013°59'0 0.9
2017-Nov-18 06:00N 09°21' W 013°59'1 1.0
2017-Nov-18 05:28N 09°21' W 013°59'1 1.1
2017-Nov-18 05:00N 09°20' W 013°60'1 1.2
2017-Nov-18 04:30N 09°20' W 014°00'1 1.1
2017-Nov-18 04:01N 09°20' W 014°01'0 1.0
2017-Nov-18 03:30N 09°19' W 014°01'0 0.8
2017-Nov-18 03:00N 09°19' W 014°01'0 0.6
2017-Nov-18 02:30N 09°19' W 014°02'0 0.4
2017-Nov-18 02:00N 09°19' W 014°02'0 0.4
2017-Nov-18 01:30N 09°19' W 014°02'0 0.3
2017-Nov-18 01:00N 09°19' W 014°02'0 0.2
2017-Nov-18 00:30N 09°19' W 014°02'0 0.4
2017-Nov-18 00:00N 09°19' W 014°02'0 0.5
2017-Nov-17 23:31N 09°19' W 014°02'0 0.6
2017-Nov-17 23:00N 09°19' W 014°02'0 0.6
2017-Nov-17 22:31N 09°20' W 014°02'0 0.7
2017-Nov-17 22:01N 09°20' W 014°03'0 0.5
2017-Nov-17 21:30N 09°20' W 014°03'1 0.7
2017-Nov-17 20:20N 09°21' W 014°02'3 9.0
2017-Nov-17 19:59N 09°22' W 013°59'5 9.5
2017-Nov-17 19:30N 09°24' W 013°55'2 4.6
2017-Nov-17 19:00N 09°25' W 013°53'0 0.8
2017-Nov-17 18:31N 09°24' W 013°53'0 0.9
2017-Nov-17 18:00N 09°24' W 013°53'1 1.1
2017-Nov-17 17:31N 09°24' W 013°54'1 1.0
2017-Nov-17 17:01N 09°23' W 013°54'1 1.0
2017-Nov-17 16:30N 09°23' W 013°55'1 1.1
2017-Nov-17 16:01N 09°23' W 013°55'1 1.1
2017-Nov-17 15:31N 09°23' W 013°56'1 1.0
2017-Nov-17 15:00N 09°22' W 013°56'0 1.0
2017-Nov-17 14:31N 09°22' W 013°56'0 0.7
2017-Nov-17 14:00N 09°22' W 013°57'0 0.5
2017-Nov-17 13:30N 09°22' W 013°57'0 0.4
2017-Nov-17 13:00N 09°22' W 013°57'0 0.4
2017-Nov-17 12:31N 09°22' W 013°57'0 0.3
2017-Nov-17 12:01N 09°22' W 013°58'0 0.4
2017-Nov-17 11:31N 09°23' W 013°58'0 0.3
2017-Nov-17 11:00N 09°23' W 013°58'0 0.3
2017-Nov-17 09:34N 09°23' W 013°57'0 0.2
2017-Nov-17 09:28N 09°23' W 013°57'0 0.3
2017-Nov-17 08:53N 09°22' W 013°57'0 0.6
2017-Nov-17 08:03N 09°22' W 013°57'0 0.8
2017-Nov-17 08:00N 09°22' W 013°57'0 0.8
2017-Nov-17 07:31N 09°21' W 013°57'1 1.1
2017-Nov-17 07:01N 09°21' W 013°57'1 1.4
2017-Nov-17 06:31N 09°20' W 013°57'1 1.4
2017-Nov-17 06:00N 09°20' W 013°58'1 1.6
2017-Nov-17 05:12N 09°18' W 013°58'1 1.7
2017-Nov-17 04:31N 09°17' W 013°58'0 1.8
2017-Nov-17 04:30N 09°17' W 013°58'1 1.5
2017-Nov-17 04:00N 09°16' W 013°58'1 1.4
2017-Nov-17 03:31N 09°16' W 013°59'1 1.1
2017-Nov-17 03:01N 09°15' W 013°59'1 0.8
2017-Nov-17 02:22N 09°15' W 013°59'0 0.6
2017-Nov-17 01:58N 09°15' W 013°59'0 0.4
2017-Nov-17 01:30N 09°15' W 013°59'0 0.4
2017-Nov-17 01:00N 09°14' W 013°59'0 0.1
2017-Nov-17 00:29N 09°14' W 013°59'0 0.4
2017-Nov-17 00:01N 09°14' W 013°59'0 0.5
2017-Nov-16 23:27N 09°14' W 013°59'0 0.6
2017-Nov-16 22:59N 09°15' W 013°59'0 0.6
2017-Nov-16 22:30N 09°15' W 013°58'0 0.6
2017-Nov-16 22:00N 09°15' W 013°58'0 0.6
2017-Nov-16 21:28N 09°15' W 013°58'0 0.5
2017-Nov-16 21:01N 09°15' W 013°58'0 0.4
2017-Nov-16 20:30N 09°15' W 013°57'0 0.3
2017-Nov-16 19:59N 09°15' W 013°57'0 0.3
2017-Nov-16 19:17N 09°15' W 013°57'0 0.4
2017-Nov-16 18:40N 09°14' W 013°57'0 0.6
2017-Nov-16 18:30N 09°14' W 013°57'0 0.7
2017-Nov-16 18:01N 09°14' W 013°57'0 0.9
2017-Nov-16 17:30N 09°14' W 013°58'0 0.9
2017-Nov-16 17:01N 09°13' W 013°58'0 1.0
2017-Nov-16 16:31N 09°13' W 013°58'0 0.9
2017-Nov-16 16:01N 09°13' W 013°59'1 1.1
2017-Nov-16 15:30N 09°13' W 013°59'1 1.2
2017-Nov-16 15:00N 09°12' W 013°60'1 1.1
2017-Nov-16 14:31N 09°12' W 014°00'0 1.0
2017-Nov-16 14:00N 09°12' W 014°01'0 0.8
2017-Nov-16 13:30N 09°12' W 014°01'0 0.7
2017-Nov-16 13:00N 09°12' W 014°01'0 0.7
2017-Nov-16 12:31N 09°12' W 014°02'0 0.7
2017-Nov-16 12:00N 09°13' W 014°02'0 0.8
2017-Nov-16 11:30N 09°13' W 014°02'0 0.8
2017-Nov-16 11:00N 09°13' W 014°02'0 0.8
2017-Nov-16 10:31N 09°14' W 014°02'0 0.9
2017-Nov-16 10:00N 09°14' W 014°02'0 0.9
2017-Nov-16 09:31N 09°15' W 014°01'0 0.9
2017-Nov-16 09:00N 09°15' W 014°01'0 0.8
2017-Nov-16 08:31N 09°16' W 014°01'0 0.8
2017-Nov-16 08:00N 09°16' W 014°01'0 0.6
2017-Nov-16 07:31N 09°16' W 014°01'0 0.4
2017-Nov-16 07:00N 09°17' W 014°01'0 0.3
2017-Nov-16 06:30N 09°17' W 014°01'0 0.3
2017-Nov-16 06:01N 09°17' W 014°01'0 0.6
2017-Nov-16 05:30N 09°17' W 014°02'0 0.8
2017-Nov-16 05:01N 09°17' W 014°02'1 1.1
2017-Nov-16 04:31N 09°16' W 014°03'1 1.3
2017-Nov-16 04:01N 09°16' W 014°03'1 1.4
2017-Nov-16 03:30N 09°16' W 014°04'1 1.5
2017-Nov-16 03:00N 09°15' W 014°04'8 7.1
2017-Nov-16 01:50N 09°18' W 013°56'3 9.4
2017-Nov-16 01:29N 09°19' W 013°53'4 9.3
2017-Nov-16 01:00N 09°20' W 013°49'4 8.5
2017-Nov-16 00:30N 09°22' W 013°45'5 9.8
2017-Nov-16 00:01N 09°21' W 013°50'510.9
2017-Nov-15 23:30N 09°19' W 013°55'612.1
2017-Nov-15 23:01N 09°18' W 014°01'612.5
2017-Nov-15 22:31N 09°19' W 014°07'712.4
2017-Nov-15 21:59N 09°20' W 014°14'1712.5
2017-Nov-15 20:35N 09°22' W 014°31'412.5
2017-Nov-15 20:17N 09°22' W 014°35'412.6
2017-Nov-15 19:58N 09°23' W 014°39'  

Dump ship's entire track history